sensor_id;sensor_type;location;lat;lon;timestamp;P1;durP1;ratioP1;P2;durP2;ratioP2
2119;SDS011;1066;52.540;13.420;2023-03-01T00:01:16;20.50;;;12.50;;
2119;SDS011;1066;52.540;13.420;2023-03-01T00:03:41;14.90;;;12.37;;
2119;SDS011;1066;52.540;13.420;2023-03-01T00:06:07;15.40;;;11.43;;
2119;SDS011;1066;52.540;13.420;2023-03-01T00:08:32;13.13;;;11.70;;
2119;SDS011;1066;52.540;13.420;2023-03-01T00:13:26;16.50;;;13.20;;
2119;SDS011;1066;52.540;13.420;2023-03-01T00:15:51;13.57;;;12.07;;
2119;SDS011;1066;52.540;13.420;2023-03-01T00:18:17;15.73;;;11.90;;
2119;SDS011;1066;52.540;13.420;2023-03-01T00:20:48;13.97;;;11.47;;
2119;SDS011;1066;52.540;13.420;2023-03-01T00:23:13;15.27;;;12.13;;
2119;SDS011;1066;52.540;13.420;2023-03-01T00:25:42;13.27;;;11.87;;
2119;SDS011;1066;52.540;13.420;2023-03-01T00:28:07;13.17;;;10.67;;
2119;SDS011;1066;52.540;13.420;2023-03-01T00:30:33;14.33;;;10.47;;
2119;SDS011;1066;52.540;13.420;2023-03-01T00:32:58;14.43;;;11.93;;
2119;SDS011;1066;52.540;13.420;2023-03-01T00:35:23;14.00;;;11.27;;
2119;SDS011;1066;52.540;13.420;2023-03-01T00:37:48;12.07;;;10.80;;
2119;SDS011;1066;52.540;13.420;2023-03-01T00:40:23;12.97;;;11.27;;
2119;SDS011;1066;52.540;13.420;2023-03-01T00:42:48;13.00;;;11.00;;
2119;SDS011;1066;52.540;13.420;2023-03-01T00:45:13;12.60;;;10.10;;
2119;SDS011;1066;52.540;13.420;2023-03-01T00:47:39;12.43;;;10.63;;
2119;SDS011;1066;52.540;13.420;2023-03-01T00:50:04;12.17;;;10.60;;
2119;SDS011;1066;52.540;13.420;2023-03-01T00:52:29;15.27;;;10.83;;
2119;SDS011;1066;52.540;13.420;2023-03-01T00:54:54;16.57;;;12.80;;
2119;SDS011;1066;52.540;13.420;2023-03-01T00:57:20;14.27;;;11.80;;
2119;SDS011;1066;52.540;13.420;2023-03-01T00:59:45;16.27;;;11.97;;
2119;SDS011;1066;52.540;13.420;2023-03-01T01:02:10;12.17;;;10.83;;
2119;SDS011;1066;52.540;13.420;2023-03-01T01:04:35;12.03;;;10.00;;
2119;SDS011;1066;52.540;13.420;2023-03-01T01:07:01;11.53;;;10.03;;
2119;SDS011;1066;52.540;13.420;2023-03-01T01:09:26;13.17;;;10.57;;
2119;SDS011;1066;52.540;13.420;2023-03-01T01:11:51;13.23;;;10.80;;
2119;SDS011;1066;52.540;13.420;2023-03-01T01:14:17;16.03;;;11.03;;
2119;SDS011;1066;52.540;13.420;2023-03-01T01:16:42;12.67;;;11.23;;
2119;SDS011;1066;52.540;13.420;2023-03-01T01:19:08;13.50;;;12.13;;
2119;SDS011;1066;52.540;13.420;2023-03-01T01:21:34;13.13;;;11.73;;
2119;SDS011;1066;52.540;13.420;2023-03-01T01:23:59;16.10;;;11.60;;
2119;SDS011;1066;52.540;13.420;2023-03-01T01:26:25;12.63;;;11.10;;
2119;SDS011;1066;52.540;13.420;2023-03-01T01:28:51;13.67;;;10.40;;
2119;SDS011;1066;52.540;13.420;2023-03-01T01:31:17;18.37;;;11.93;;
2119;SDS011;1066;52.540;13.420;2023-03-01T01:33:43;13.00;;;10.77;;
2119;SDS011;1066;52.540;13.420;2023-03-01T01:36:08;15.40;;;12.37;;
2119;SDS011;1066;52.540;13.420;2023-03-01T01:38:34;16.80;;;11.63;;
2119;SDS011;1066;52.540;13.420;2023-03-01T01:41:00;13.83;;;11.73;;
2119;SDS011;1066;52.540;13.420;2023-03-01T01:43:27;13.30;;;10.97;;
2119;SDS011;1066;52.540;13.420;2023-03-01T01:45:55;18.53;;;11.90;;
2119;SDS011;1066;52.540;13.420;2023-03-01T01:48:21;15.17;;;12.17;;
2119;SDS011;1066;52.540;13.420;2023-03-01T01:50:49;21.33;;;12.60;;
2119;SDS011;1066;52.540;13.420;2023-03-01T01:53:16;18.87;;;13.00;;
2119;SDS011;1066;52.540;13.420;2023-03-01T01:55:44;13.77;;;11.50;;
2119;SDS011;1066;52.540;13.420;2023-03-01T01:58:11;15.63;;;13.23;;
2119;SDS011;1066;52.540;13.420;2023-03-01T02:00:37;16.37;;;12.77;;
2119;SDS011;1066;52.540;13.420;2023-03-01T02:03:04;14.67;;;13.17;;
2119;SDS011;1066;52.540;13.420;2023-03-01T02:05:47;15.80;;;12.97;;
2119;SDS011;1066;52.540;13.420;2023-03-01T02:08:15;18.43;;;13.60;;
2119;SDS011;1066;52.540;13.420;2023-03-01T02:10:41;20.90;;;13.20;;
2119;SDS011;1066;52.540;13.420;2023-03-01T02:13:07;16.97;;;13.83;;
2119;SDS011;1066;52.540;13.420;2023-03-01T02:15:36;15.90;;;14.20;;
2119;SDS011;1066;52.540;13.420;2023-03-01T02:18:03;16.60;;;14.20;;
2119;SDS011;1066;52.540;13.420;2023-03-01T02:20:33;17.37;;;15.67;;
2119;SDS011;1066;52.540;13.420;2023-03-01T02:22:59;20.17;;;17.03;;
2119;SDS011;1066;52.540;13.420;2023-03-01T02:25:32;18.90;;;16.47;;
2119;SDS011;1066;52.540;13.420;2023-03-01T02:30:25;19.37;;;17.37;;
2119;SDS011;1066;52.540;13.420;2023-03-01T02:32:52;17.57;;;15.63;;
2119;SDS011;1066;52.540;13.420;2023-03-01T02:35:19;19.53;;;15.80;;
2119;SDS011;1066;52.540;13.420;2023-03-01T02:37:45;17.60;;;15.60;;
2119;SDS011;1066;52.540;13.420;2023-03-01T02:40:13;19.20;;;15.20;;
2119;SDS011;1066;52.540;13.420;2023-03-01T02:42:43;16.93;;;15.00;;
2119;SDS011;1066;52.540;13.420;2023-03-01T02:45:10;17.80;;;14.70;;
2119;SDS011;1066;52.540;13.420;2023-03-01T02:47:35;18.70;;;14.60;;
2119;SDS011;1066;52.540;13.420;2023-03-01T02:50:00;16.23;;;12.53;;
2119;SDS011;1066;52.540;13.420;2023-03-01T02:57:25;17.50;;;13.23;;
2119;SDS011;1066;52.540;13.420;2023-03-01T02:59:52;14.80;;;13.33;;
2119;SDS011;1066;52.540;13.420;2023-03-01T03:02:20;16.83;;;12.10;;
2119;SDS011;1066;52.540;13.420;2023-03-01T03:05:00;16.37;;;12.87;;
2119;SDS011;1066;52.540;13.420;2023-03-01T03:07:26;14.20;;;12.20;;
2119;SDS011;1066;52.540;13.420;2023-03-01T03:09:51;13.40;;;12.00;;
2119;SDS011;1066;52.540;13.420;2023-03-01T03:12:16;13.53;;;12.03;;
2119;SDS011;1066;52.540;13.420;2023-03-01T03:14:41;14.50;;;12.20;;
2119;SDS011;1066;52.540;13.420;2023-03-01T03:17:07;17.53;;;11.13;;
2119;SDS011;1066;52.540;13.420;2023-03-01T03:19:32;14.40;;;11.27;;
2119;SDS011;1066;52.540;13.420;2023-03-01T03:21:57;15.73;;;11.80;;
2119;SDS011;1066;52.540;13.420;2023-03-01T03:24:24;15.90;;;12.00;;
2119;SDS011;1066;52.540;13.420;2023-03-01T03:26:49;12.03;;;10.63;;
2119;SDS011;1066;52.540;13.420;2023-03-01T03:29:14;12.30;;;10.13;;
2119;SDS011;1066;52.540;13.420;2023-03-01T03:31:39;16.60;;;12.27;;
2119;SDS011;1066;52.540;13.420;2023-03-01T03:34:05;13.73;;;11.00;;
2119;SDS011;1066;52.540;13.420;2023-03-01T03:36:30;12.70;;;11.40;;
2119;SDS011;1066;52.540;13.420;2023-03-01T03:38:55;13.73;;;12.00;;
2119;SDS011;1066;52.540;13.420;2023-03-01T03:41:21;12.33;;;10.33;;
2119;SDS011;1066;52.540;13.420;2023-03-01T03:43:46;13.33;;;9.73;;
2119;SDS011;1066;52.540;13.420;2023-03-01T03:46:11;11.93;;;10.10;;
2119;SDS011;1066;52.540;13.420;2023-03-01T03:48:38;11.50;;;10.27;;
2119;SDS011;1066;52.540;13.420;2023-03-01T03:51:03;10.90;;;9.70;;
2119;SDS011;1066;52.540;13.420;2023-03-01T03:53:32;10.60;;;9.30;;
2119;SDS011;1066;52.540;13.420;2023-03-01T03:55:57;11.13;;;9.87;;
2119;SDS011;1066;52.540;13.420;2023-03-01T03:58:23;12.07;;;10.57;;
2119;SDS011;1066;52.540;13.420;2023-03-01T04:00:50;10.87;;;9.00;;
2119;SDS011;1066;52.540;13.420;2023-03-01T04:03:16;10.90;;;9.87;;
2119;SDS011;1066;52.540;13.420;2023-03-01T04:05:44;15.00;;;10.43;;
2119;SDS011;1066;52.540;13.420;2023-03-01T04:08:10;11.57;;;9.40;;
2119;SDS011;1066;52.540;13.420;2023-03-01T04:10:39;14.97;;;10.70;;
2119;SDS011;1066;52.540;13.420;2023-03-01T04:13:06;11.03;;;9.83;;
2119;SDS011;1066;52.540;13.420;2023-03-01T04:15:31;11.73;;;9.60;;
2119;SDS011;1066;52.540;13.420;2023-03-01T04:17:57;11.67;;;10.47;;
2119;SDS011;1066;52.540;13.420;2023-03-01T04:20:24;10.87;;;9.77;;
2119;SDS011;1066;52.540;13.420;2023-03-01T04:22:57;16.27;;;11.10;;
2119;SDS011;1066;52.540;13.420;2023-03-01T04:25:23;14.97;;;11.93;;
2119;SDS011;1066;52.540;13.420;2023-03-01T04:27:48;11.80;;;10.13;;
2119;SDS011;1066;52.540;13.420;2023-03-01T04:30:14;15.20;;;11.63;;
2119;SDS011;1066;52.540;13.420;2023-03-01T04:32:39;11.77;;;10.10;;
2119;SDS011;1066;52.540;13.420;2023-03-01T04:35:04;13.80;;;11.27;;
2119;SDS011;1066;52.540;13.420;2023-03-01T04:37:30;11.93;;;9.90;;
2119;SDS011;1066;52.540;13.420;2023-03-01T04:39:55;17.03;;;9.80;;
2119;SDS011;1066;52.540;13.420;2023-03-01T04:42:20;12.57;;;10.90;;
2119;SDS011;1066;52.540;13.420;2023-03-01T04:44:45;14.00;;;10.33;;
2119;SDS011;1066;52.540;13.420;2023-03-01T04:47:11;11.30;;;9.90;;
2119;SDS011;1066;52.540;13.420;2023-03-01T04:49:36;14.10;;;11.20;;
2119;SDS011;1066;52.540;13.420;2023-03-01T04:52:05;13.40;;;11.20;;
2119;SDS011;1066;52.540;13.420;2023-03-01T04:54:31;12.40;;;10.50;;
2119;SDS011;1066;52.540;13.420;2023-03-01T04:56:56;11.53;;;10.43;;
2119;SDS011;1066;52.540;13.420;2023-03-01T04:59:22;13.13;;;10.23;;
2119;SDS011;1066;52.540;13.420;2023-03-01T05:01:47;16.03;;;10.93;;
2119;SDS011;1066;52.540;13.420;2023-03-01T05:04:13;14.93;;;11.93;;
2119;SDS011;1066;52.540;13.420;2023-03-01T05:06:38;15.17;;;11.43;;
2119;SDS011;1066;52.540;13.420;2023-03-01T05:09:04;12.73;;;10.10;;
2119;SDS011;1066;52.540;13.420;2023-03-01T05:11:30;15.90;;;11.43;;
2119;SDS011;1066;52.540;13.420;2023-03-01T05:13:58;14.60;;;11.80;;
2119;SDS011;1066;52.540;13.420;2023-03-01T05:16:24;14.97;;;11.77;;
2119;SDS011;1066;52.540;13.420;2023-03-01T05:18:49;16.00;;;12.53;;
2119;SDS011;1066;52.540;13.420;2023-03-01T05:21:16;14.73;;;12.40;;
2119;SDS011;1066;52.540;13.420;2023-03-01T05:23:41;13.90;;;12.27;;
2119;SDS011;1066;52.540;13.420;2023-03-01T05:26:07;17.33;;;13.03;;
2119;SDS011;1066;52.540;13.420;2023-03-01T05:28:32;15.77;;;12.47;;
2119;SDS011;1066;52.540;13.420;2023-03-01T05:30:58;16.27;;;13.53;;
2119;SDS011;1066;52.540;13.420;2023-03-01T05:33:24;15.30;;;13.73;;
2119;SDS011;1066;52.540;13.420;2023-03-01T05:35:49;19.53;;;13.73;;
2119;SDS011;1066;52.540;13.420;2023-03-01T05:38:15;17.43;;;13.07;;
2119;SDS011;1066;52.540;13.420;2023-03-01T05:40:41;15.80;;;13.33;;
2119;SDS011;1066;52.540;13.420;2023-03-01T05:43:07;17.27;;;14.27;;
2119;SDS011;1066;52.540;13.420;2023-03-01T05:45:32;15.63;;;13.93;;
2119;SDS011;1066;52.540;13.420;2023-03-01T05:47:57;16.77;;;14.23;;
2119;SDS011;1066;52.540;13.420;2023-03-01T05:50:26;15.70;;;12.47;;
2119;SDS011;1066;52.540;13.420;2023-03-01T05:52:56;14.93;;;13.33;;
2119;SDS011;1066;52.540;13.420;2023-03-01T05:55:22;17.40;;;12.63;;
2119;SDS011;1066;52.540;13.420;2023-03-01T05:57:47;18.00;;;14.53;;
2119;SDS011;1066;52.540;13.420;2023-03-01T06:00:13;15.87;;;13.23;;
2119;SDS011;1066;52.540;13.420;2023-03-01T06:02:39;19.57;;;14.50;;
2119;SDS011;1066;52.540;13.420;2023-03-01T06:05:05;14.13;;;12.60;;
2119;SDS011;1066;52.540;13.420;2023-03-01T06:07:31;17.13;;;13.80;;
2119;SDS011;1066;52.540;13.420;2023-03-01T06:09:56;16.37;;;13.77;;
2119;SDS011;1066;52.540;13.420;2023-03-01T06:12:21;17.13;;;13.60;;
2119;SDS011;1066;52.540;13.420;2023-03-01T06:14:47;18.97;;;14.47;;
2119;SDS011;1066;52.540;13.420;2023-03-01T06:17:12;16.73;;;13.40;;
2119;SDS011;1066;52.540;13.420;2023-03-01T06:19:38;16.27;;;14.57;;
2119;SDS011;1066;52.540;13.420;2023-03-01T06:22:03;17.40;;;12.77;;
2119;SDS011;1066;52.540;13.420;2023-03-01T06:24:28;16.63;;;14.87;;
2119;SDS011;1066;52.540;13.420;2023-03-01T06:26:54;16.30;;;13.47;;
2119;SDS011;1066;52.540;13.420;2023-03-01T06:29:19;20.43;;;14.87;;
2119;SDS011;1066;52.540;13.420;2023-03-01T06:31:44;18.20;;;14.00;;
2119;SDS011;1066;52.540;13.420;2023-03-01T06:34:10;17.40;;;14.13;;
2119;SDS011;1066;52.540;13.420;2023-03-01T06:36:38;17.77;;;13.23;;
2119;SDS011;1066;52.540;13.420;2023-03-01T06:39:03;19.83;;;15.00;;
2119;SDS011;1066;52.540;13.420;2023-03-01T06:41:30;22.97;;;18.60;;
2119;SDS011;1066;52.540;13.420;2023-03-01T06:43:55;21.10;;;18.80;;
2119;SDS011;1066;52.540;13.420;2023-03-01T06:46:20;23.13;;;17.33;;
2119;SDS011;1066;52.540;13.420;2023-03-01T06:48:46;19.60;;;16.50;;
2119;SDS011;1066;52.540;13.420;2023-03-01T06:51:11;20.17;;;16.10;;
2119;SDS011;1066;52.540;13.420;2023-03-01T06:53:36;22.07;;;15.73;;
2119;SDS011;1066;52.540;13.420;2023-03-01T06:56:02;19.43;;;14.80;;
2119;SDS011;1066;52.540;13.420;2023-03-01T06:58:27;17.53;;;14.53;;
2119;SDS011;1066;52.540;13.420;2023-03-01T07:00:52;23.23;;;15.73;;
2119;SDS011;1066;52.540;13.420;2023-03-01T07:03:18;18.90;;;14.37;;
2119;SDS011;1066;52.540;13.420;2023-03-01T07:05:43;19.13;;;16.07;;
2119;SDS011;1066;52.540;13.420;2023-03-01T07:08:09;22.00;;;16.20;;
2119;SDS011;1066;52.540;13.420;2023-03-01T07:10:34;19.57;;;15.57;;
2119;SDS011;1066;52.540;13.420;2023-03-01T07:13:00;22.10;;;17.40;;
2119;SDS011;1066;52.540;13.420;2023-03-01T07:15:26;25.10;;;16.17;;
2119;SDS011;1066;52.540;13.420;2023-03-01T07:17:51;24.43;;;16.93;;
2119;SDS011;1066;52.540;13.420;2023-03-01T07:20:17;21.60;;;17.60;;
2119;SDS011;1066;52.540;13.420;2023-03-01T07:22:43;21.20;;;16.60;;
2119;SDS011;1066;52.540;13.420;2023-03-01T07:25:08;23.50;;;19.33;;
2119;SDS011;1066;52.540;13.420;2023-03-01T07:27:34;20.70;;;17.17;;
2119;SDS011;1066;52.540;13.420;2023-03-01T07:29:59;21.50;;;16.43;;
2119;SDS011;1066;52.540;13.420;2023-03-01T07:32:24;25.93;;;15.03;;
2119;SDS011;1066;52.540;13.420;2023-03-01T07:34:50;17.33;;;13.77;;
2119;SDS011;1066;52.540;13.420;2023-03-01T07:37:16;16.27;;;13.30;;
2119;SDS011;1066;52.540;13.420;2023-03-01T07:39:41;17.30;;;13.57;;
2119;SDS011;1066;52.540;13.420;2023-03-01T07:42:07;17.47;;;13.30;;
2119;SDS011;1066;52.540;13.420;2023-03-01T07:44:32;15.30;;;11.77;;
2119;SDS011;1066;52.540;13.420;2023-03-01T07:46:57;18.07;;;13.27;;
2119;SDS011;1066;52.540;13.420;2023-03-01T07:49:23;13.53;;;11.03;;
2119;SDS011;1066;52.540;13.420;2023-03-01T07:51:48;14.70;;;10.60;;
2119;SDS011;1066;52.540;13.420;2023-03-01T07:54:13;18.30;;;12.70;;
2119;SDS011;1066;52.540;13.420;2023-03-01T07:56:38;17.07;;;13.53;;
2119;SDS011;1066;52.540;13.420;2023-03-01T07:59:05;13.90;;;12.17;;
2119;SDS011;1066;52.540;13.420;2023-03-01T08:01:30;16.33;;;12.90;;
2119;SDS011;1066;52.540;13.420;2023-03-01T08:03:56;15.53;;;12.67;;
2119;SDS011;1066;52.540;13.420;2023-03-01T08:06:21;15.20;;;11.37;;
2119;SDS011;1066;52.540;13.420;2023-03-01T08:08:46;12.07;;;10.07;;
2119;SDS011;1066;52.540;13.420;2023-03-01T08:11:12;13.97;;;11.40;;
2119;SDS011;1066;52.540;13.420;2023-03-01T08:13:37;13.53;;;10.67;;
2119;SDS011;1066;52.540;13.420;2023-03-01T08:16:03;10.60;;;9.27;;
2119;SDS011;1066;52.540;13.420;2023-03-01T08:18:28;11.33;;;8.83;;
2119;SDS011;1066;52.540;13.420;2023-03-01T08:20:53;11.27;;;9.00;;
2119;SDS011;1066;52.540;13.420;2023-03-01T08:23:19;11.30;;;9.33;;
2119;SDS011;1066;52.540;13.420;2023-03-01T08:25:44;12.20;;;8.50;;
2119;SDS011;1066;52.540;13.420;2023-03-01T08:28:09;8.67;;;7.87;;
2119;SDS011;1066;52.540;13.420;2023-03-01T08:30:34;10.57;;;8.63;;
2119;SDS011;1066;52.540;13.420;2023-03-01T08:33:00;11.70;;;8.90;;
2119;SDS011;1066;52.540;13.420;2023-03-01T08:35:25;11.40;;;9.00;;
2119;SDS011;1066;52.540;13.420;2023-03-01T08:37:50;11.37;;;8.60;;
2119;SDS011;1066;52.540;13.420;2023-03-01T08:40:15;17.47;;;8.70;;
2119;SDS011;1066;52.540;13.420;2023-03-01T08:42:41;8.00;;;7.20;;
2119;SDS011;1066;52.540;13.420;2023-03-01T08:45:07;11.87;;;6.03;;
2119;SDS011;1066;52.540;13.420;2023-03-01T08:47:33;8.73;;;6.07;;
2119;SDS011;1066;52.540;13.420;2023-03-01T08:49:59;9.60;;;7.57;;
2119;SDS011;1066;52.540;13.420;2023-03-01T08:52:24;6.07;;;5.47;;
2119;SDS011;1066;52.540;13.420;2023-03-01T08:54:49;7.50;;;5.90;;
2119;SDS011;1066;52.540;13.420;2023-03-01T08:57:14;9.70;;;5.80;;
2119;SDS011;1066;52.540;13.420;2023-03-01T08:59:40;11.80;;;7.93;;
2119;SDS011;1066;52.540;13.420;2023-03-01T09:02:06;13.07;;;7.80;;
2119;SDS011;1066;52.540;13.420;2023-03-01T09:04:35;11.30;;;7.83;;
2119;SDS011;1066;52.540;13.420;2023-03-01T09:07:00;10.87;;;7.17;;
2119;SDS011;1066;52.540;13.420;2023-03-01T09:09:25;7.07;;;5.83;;
2119;SDS011;1066;52.540;13.420;2023-03-01T09:11:50;10.53;;;6.67;;
2119;SDS011;1066;52.540;13.420;2023-03-01T09:14:16;8.20;;;5.30;;
2119;SDS011;1066;52.540;13.420;2023-03-01T09:16:41;7.30;;;5.90;;
2119;SDS011;1066;52.540;13.420;2023-03-01T09:19:06;5.27;;;4.70;;
2119;SDS011;1066;52.540;13.420;2023-03-01T09:21:32;7.00;;;5.90;;
2119;SDS011;1066;52.540;13.420;2023-03-01T09:23:57;7.43;;;5.30;;
2119;SDS011;1066;52.540;13.420;2023-03-01T09:26:23;7.03;;;5.33;;
2119;SDS011;1066;52.540;13.420;2023-03-01T09:28:48;7.67;;;5.47;;
2119;SDS011;1066;52.540;13.420;2023-03-01T09:31:14;9.23;;;6.07;;
2119;SDS011;1066;52.540;13.420;2023-03-01T09:33:40;9.43;;;5.63;;
2119;SDS011;1066;52.540;13.420;2023-03-01T09:36:07;5.73;;;5.13;;
2119;SDS011;1066;52.540;13.420;2023-03-01T09:38:33;8.77;;;6.27;;
2119;SDS011;1066;52.540;13.420;2023-03-01T09:40:59;7.20;;;5.50;;
2119;SDS011;1066;52.540;13.420;2023-03-01T09:45:54;8.97;;;6.00;;
2119;SDS011;1066;52.540;13.420;2023-03-01T09:48:21;5.77;;;4.90;;
2119;SDS011;1066;52.540;13.420;2023-03-01T09:50:48;9.00;;;6.70;;
2119;SDS011;1066;52.540;13.420;2023-03-01T09:53:21;6.37;;;5.77;;
2119;SDS011;1066;52.540;13.420;2023-03-01T09:56:05;6.20;;;5.60;;
2119;SDS011;1066;52.540;13.420;2023-03-01T09:58:37;8.00;;;5.07;;
2119;SDS011;1066;52.540;13.420;2023-03-01T10:01:27;6.17;;;4.83;;
2119;SDS011;1066;52.540;13.420;2023-03-01T10:04:37;5.87;;;4.37;;
2119;SDS011;1066;52.540;13.420;2023-03-01T10:06:36;9.37;;;4.60;;
2119;SDS011;1066;52.540;13.420;2023-03-01T10:09:10;6.93;;;4.70;;
2119;SDS011;1066;52.540;13.420;2023-03-01T10:11:38;7.63;;;5.50;;
2119;SDS011;1066;52.540;13.420;2023-03-01T10:14:05;5.23;;;4.43;;
2119;SDS011;1066;52.540;13.420;2023-03-01T10:19:06;6.97;;;3.93;;
2119;SDS011;1066;52.540;13.420;2023-03-01T10:21:35;5.10;;;3.07;;
2119;SDS011;1066;52.540;13.420;2023-03-01T10:24:09;5.73;;;4.17;;
2119;SDS011;1066;52.540;13.420;2023-03-01T10:26:38;3.67;;;2.97;;
2119;SDS011;1066;52.540;13.420;2023-03-01T10:29:08;4.33;;;3.10;;
2119;SDS011;1066;52.540;13.420;2023-03-01T10:31:37;4.17;;;3.03;;
2119;SDS011;1066;52.540;13.420;2023-03-01T10:34:07;4.37;;;3.83;;
2119;SDS011;1066;52.540;13.420;2023-03-01T10:36:33;5.50;;;3.10;;
2119;SDS011;1066;52.540;13.420;2023-03-01T10:38:59;4.07;;;3.67;;
2119;SDS011;1066;52.540;13.420;2023-03-01T10:41:25;5.40;;;3.67;;
2119;SDS011;1066;52.540;13.420;2023-03-01T10:43:52;4.23;;;3.20;;
2119;SDS011;1066;52.540;13.420;2023-03-01T10:46:31;6.03;;;3.90;;
2119;SDS011;1066;52.540;13.420;2023-03-01T10:51:42;9.73;;;3.80;;
2119;SDS011;1066;52.540;13.420;2023-03-01T10:54:19;5.47;;;3.20;;
2119;SDS011;1066;52.540;13.420;2023-03-01T10:56:50;4.90;;;3.67;;
2119;SDS011;1066;52.540;13.420;2023-03-01T10:59:36;4.10;;;3.67;;
2119;SDS011;1066;52.540;13.420;2023-03-01T11:02:18;3.40;;;3.10;;
2119;SDS011;1066;52.540;13.420;2023-03-01T11:04:56;5.50;;;3.27;;
2119;SDS011;1066;52.540;13.420;2023-03-01T11:07:22;5.23;;;3.63;;
2119;SDS011;1066;52.540;13.420;2023-03-01T11:09:47;6.13;;;3.20;;
2119;SDS011;1066;52.540;13.420;2023-03-01T11:12:16;5.20;;;3.70;;
2119;SDS011;1066;52.540;13.420;2023-03-01T11:14:50;4.97;;;3.33;;
2119;SDS011;1066;52.540;13.420;2023-03-01T11:17:27;15.83;;;4.77;;
2119;SDS011;1066;52.540;13.420;2023-03-01T11:22:37;9.57;;;3.93;;
2119;SDS011;1066;52.540;13.420;2023-03-01T11:25:04;6.00;;;3.67;;
2119;SDS011;1066;52.540;13.420;2023-03-01T11:27:34;4.27;;;3.40;;
2119;SDS011;1066;52.540;13.420;2023-03-01T11:30:12;4.00;;;3.40;;
2119;SDS011;1066;52.540;13.420;2023-03-01T11:32:42;4.20;;;3.30;;
2119;SDS011;1066;52.540;13.420;2023-03-01T11:35:10;4.53;;;2.87;;
2119;SDS011;1066;52.540;13.420;2023-03-01T11:40:32;3.60;;;2.50;;
2119;SDS011;1066;52.540;13.420;2023-03-01T11:43:06;3.77;;;3.00;;
2119;SDS011;1066;52.540;13.420;2023-03-01T11:50:47;3.63;;;3.30;;
2119;SDS011;1066;52.540;13.420;2023-03-01T12:08:56;4.33;;;2.90;;
2119;SDS011;1066;52.540;13.420;2023-03-01T12:30:02;8.20;;;2.90;;
2119;SDS011;1066;52.540;13.420;2023-03-01T12:35:29;5.60;;;3.77;;
2119;SDS011;1066;52.540;13.420;2023-03-01T12:38:13;5.77;;;4.07;;
2119;SDS011;1066;52.540;13.420;2023-03-01T12:43:31;4.80;;;2.80;;
2119;SDS011;1066;52.540;13.420;2023-03-01T12:50:53;4.37;;;2.90;;
2119;SDS011;1066;52.540;13.420;2023-03-01T12:55:44;4.03;;;2.60;;
2119;SDS011;1066;52.540;13.420;2023-03-01T13:03:15;5.37;;;3.47;;
2119;SDS011;1066;52.540;13.420;2023-03-01T13:08:19;3.10;;;2.80;;
2119;SDS011;1066;52.540;13.420;2023-03-01T13:10:49;3.13;;;2.70;;
2119;SDS011;1066;52.540;13.420;2023-03-01T13:15:43;3.40;;;2.73;;
2119;SDS011;1066;52.540;13.420;2023-03-01T13:31:01;3.97;;;2.83;;
2119;SDS011;1066;52.540;13.420;2023-03-01T13:35:55;10.27;;;2.87;;
2119;SDS011;1066;52.540;13.420;2023-03-01T13:41:06;4.23;;;2.97;;
2119;SDS011;1066;52.540;13.420;2023-03-01T13:43:34;4.23;;;2.83;;
2119;SDS011;1066;52.540;13.420;2023-03-01T13:46:02;3.00;;;2.27;;
2119;SDS011;1066;52.540;13.420;2023-03-01T13:48:32;3.43;;;2.40;;
2119;SDS011;1066;52.540;13.420;2023-03-01T13:51:02;3.87;;;2.80;;
2119;SDS011;1066;52.540;13.420;2023-03-01T13:53:29;3.73;;;2.60;;
2119;SDS011;1066;52.540;13.420;2023-03-01T13:56:00;3.07;;;2.77;;
2119;SDS011;1066;52.540;13.420;2023-03-01T13:58:33;3.80;;;2.33;;
2119;SDS011;1066;52.540;13.420;2023-03-01T14:01:01;3.80;;;2.57;;
2119;SDS011;1066;52.540;13.420;2023-03-01T14:03:27;3.40;;;2.53;;
2119;SDS011;1066;52.540;13.420;2023-03-01T14:06:00;2.93;;;2.60;;
2119;SDS011;1066;52.540;13.420;2023-03-01T14:08:27;3.43;;;2.63;;
2119;SDS011;1066;52.540;13.420;2023-03-01T14:18:34;4.77;;;3.23;;
2119;SDS011;1066;52.540;13.420;2023-03-01T14:21:00;5.07;;;2.77;;
2119;SDS011;1066;52.540;13.420;2023-03-01T14:23:26;5.20;;;2.87;;
2119;SDS011;1066;52.540;13.420;2023-03-01T14:25:55;3.00;;;2.50;;
2119;SDS011;1066;52.540;13.420;2023-03-01T14:28:23;3.10;;;2.30;;
2119;SDS011;1066;52.540;13.420;2023-03-01T14:30:59;3.17;;;2.30;;
2119;SDS011;1066;52.540;13.420;2023-03-01T14:35:53;4.60;;;2.90;;
2119;SDS011;1066;52.540;13.420;2023-03-01T14:38:23;3.20;;;2.60;;
2119;SDS011;1066;52.540;13.420;2023-03-01T14:40:49;3.33;;;2.53;;
2119;SDS011;1066;52.540;13.420;2023-03-01T14:43:17;2.97;;;1.93;;
2119;SDS011;1066;52.540;13.420;2023-03-01T14:45:48;3.47;;;2.60;;
2119;SDS011;1066;52.540;13.420;2023-03-01T14:48:14;3.47;;;2.57;;
2119;SDS011;1066;52.540;13.420;2023-03-01T14:50:40;3.40;;;2.37;;
2119;SDS011;1066;52.540;13.420;2023-03-01T14:53:07;3.20;;;2.33;;
2119;SDS011;1066;52.540;13.420;2023-03-01T14:55:41;4.03;;;2.57;;
2119;SDS011;1066;52.540;13.420;2023-03-01T14:58:11;4.20;;;2.97;;
2119;SDS011;1066;52.540;13.420;2023-03-01T15:00:37;3.50;;;2.40;;
2119;SDS011;1066;52.540;13.420;2023-03-01T15:03:05;3.50;;;2.47;;
2119;SDS011;1066;52.540;13.420;2023-03-01T15:05:34;2.90;;;2.60;;
2119;SDS011;1066;52.540;13.420;2023-03-01T15:08:01;3.63;;;2.77;;
2119;SDS011;1066;52.540;13.420;2023-03-01T15:10:28;3.90;;;3.07;;
2119;SDS011;1066;52.540;13.420;2023-03-01T15:12:53;5.93;;;2.83;;
2119;SDS011;1066;52.540;13.420;2023-03-01T15:15:19;8.50;;;3.33;;
2119;SDS011;1066;52.540;13.420;2023-03-01T15:17:48;7.63;;;3.33;;
2119;SDS011;1066;52.540;13.420;2023-03-01T15:20:16;2.53;;;2.33;;
2119;SDS011;1066;52.540;13.420;2023-03-01T15:22:45;3.00;;;2.33;;
2119;SDS011;1066;52.540;13.420;2023-03-01T15:25:16;4.93;;;2.93;;
2119;SDS011;1066;52.540;13.420;2023-03-01T15:27:46;4.00;;;2.80;;
2119;SDS011;1066;52.540;13.420;2023-03-01T15:30:19;3.00;;;2.63;;
2119;SDS011;1066;52.540;13.420;2023-03-01T15:32:45;3.40;;;2.57;;
2119;SDS011;1066;52.540;13.420;2023-03-01T15:37:54;3.67;;;2.70;;
2119;SDS011;1066;52.540;13.420;2023-03-01T15:42:45;5.03;;;3.60;;
2119;SDS011;1066;52.540;13.420;2023-03-01T15:45:21;4.23;;;3.20;;
2119;SDS011;1066;52.540;13.420;2023-03-01T15:47:47;3.33;;;3.03;;
2119;SDS011;1066;52.540;13.420;2023-03-01T15:52:44;3.20;;;2.60;;
2119;SDS011;1066;52.540;13.420;2023-03-01T15:55:26;4.10;;;3.30;;
2119;SDS011;1066;52.540;13.420;2023-03-01T15:58:01;3.10;;;2.73;;
2119;SDS011;1066;52.540;13.420;2023-03-01T16:00:27;4.33;;;2.80;;
2119;SDS011;1066;52.540;13.420;2023-03-01T16:02:53;3.40;;;3.10;;
2119;SDS011;1066;52.540;13.420;2023-03-01T16:05:20;4.10;;;3.23;;
2119;SDS011;1066;52.540;13.420;2023-03-01T16:07:46;3.93;;;2.73;;
2119;SDS011;1066;52.540;13.420;2023-03-01T16:10:11;3.20;;;2.70;;
2119;SDS011;1066;52.540;13.420;2023-03-01T16:12:36;3.30;;;2.70;;
2119;SDS011;1066;52.540;13.420;2023-03-01T16:15:04;3.53;;;2.53;;
2119;SDS011;1066;52.540;13.420;2023-03-01T16:17:29;3.73;;;2.70;;
2119;SDS011;1066;52.540;13.420;2023-03-01T16:19:54;6.47;;;3.00;;
2119;SDS011;1066;52.540;13.420;2023-03-01T16:22:19;4.10;;;3.10;;
2119;SDS011;1066;52.540;13.420;2023-03-01T16:24:49;4.07;;;3.00;;
2119;SDS011;1066;52.540;13.420;2023-03-01T16:27:15;4.20;;;2.90;;
2119;SDS011;1066;52.540;13.420;2023-03-01T16:29:40;5.57;;;3.23;;
2119;SDS011;1066;52.540;13.420;2023-03-01T16:32:05;2.97;;;2.67;;
2119;SDS011;1066;52.540;13.420;2023-03-01T16:34:30;3.40;;;2.80;;
2119;SDS011;1066;52.540;13.420;2023-03-01T16:36:56;3.40;;;2.50;;
2119;SDS011;1066;52.540;13.420;2023-03-01T16:39:21;4.20;;;3.50;;
2119;SDS011;1066;52.540;13.420;2023-03-01T16:41:46;6.00;;;3.27;;
2119;SDS011;1066;52.540;13.420;2023-03-01T16:44:11;3.90;;;3.00;;
2119;SDS011;1066;52.540;13.420;2023-03-01T16:46:36;3.00;;;2.70;;